N123AB KSLC-KPVU
Flight info
| Callsign | N123AB |
|---|---|
| Flight time | 0h 11m |
| Altitude | VFR/085 |
| Route | |
| Aircraft | C750/M-VGDW/C |
Departure
| Time | 2026-04-20 23:41 |
|---|---|
| Airport | Salt Lake City International Airport (KSLC) |
Arrival
| Time | 2026-04-20 23:53 |
|---|---|
| Airport | Provo Municipal Airport (KPVU) |
| Time | Latitude | Longitude | Altitude | Speed | Heading |
|---|---|---|---|---|---|
| 2026-04-20 23:23 | 40.77554 | -111.95977 | 4253 ft | 0 kts | 180° |
| 2026-04-20 23:31 | 40.77553 | -111.95977 | 4255 ft | 1 kts | 180° |
| 2026-04-20 23:32 | 40.77544 | -111.95977 | 4153 ft | 5 kts | 180° |
| 2026-04-20 23:32 | 40.77521 | -111.95990 | 4178 ft | 3 kts | 198° |
| 2026-04-20 23:32 | 40.77491 | -111.95991 | 4178 ft | 5 kts | 178° |
| 2026-04-20 23:32 | 40.77488 | -111.95992 | 4178 ft | 0 kts | 182° |
| 2026-04-20 23:34 | 40.77475 | -111.96010 | 4178 ft | 3 kts | 257° |
| 2026-04-20 23:34 | 40.77491 | -111.96063 | 4179 ft | 8 kts | 340° |
| 2026-04-20 23:34 | 40.77572 | -111.96064 | 4171 ft | 15 kts | 359° |
| 2026-04-20 23:35 | 40.77695 | -111.96066 | 4179 ft | 20 kts | 359° |
| 2026-04-20 23:35 | 40.77965 | -111.96003 | 4177 ft | 19 kts | 359° |
| 2026-04-20 23:35 | 40.78095 | -111.96003 | 4177 ft | 18 kts | 0° |
| 2026-04-20 23:36 | 40.78214 | -111.96003 | 4227 ft | 17 kts | 359° |
| 2026-04-20 23:36 | 40.78324 | -111.96003 | 4227 ft | 16 kts | 0° |
| 2026-04-20 23:36 | 40.78430 | -111.96003 | 4227 ft | 15 kts | 0° |
| 2026-04-20 23:36 | 40.78531 | -111.96003 | 4227 ft | 14 kts | 0° |
| 2026-04-20 23:37 | 40.78630 | -111.96003 | 4227 ft | 16 kts | 0° |
| 2026-04-20 23:37 | 40.78739 | -111.96002 | 4228 ft | 16 kts | 0° |
| 2026-04-20 23:37 | 40.78860 | -111.96003 | 4228 ft | 21 kts | 360° |
| 2026-04-20 23:37 | 40.79015 | -111.96003 | 4227 ft | 22 kts | 0° |
| 2026-04-20 23:38 | 40.79158 | -111.96003 | 4228 ft | 19 kts | 0° |
| 2026-04-20 23:38 | 40.79297 | -111.96003 | 4227 ft | 22 kts | 0° |
| 2026-04-20 23:38 | 40.79463 | -111.96003 | 4227 ft | 26 kts | 360° |
| 2026-04-20 23:38 | 40.79646 | -111.96003 | 4227 ft | 24 kts | 360° |
| 2026-04-20 23:39 | 40.79812 | -111.96003 | 4227 ft | 25 kts | 360° |
| 2026-04-20 23:39 | 40.79935 | -111.96021 | 4227 ft | 15 kts | 311° |
| 2026-04-20 23:39 | 40.79917 | -111.96132 | 4227 ft | 14 kts | 213° |
| 2026-04-20 23:39 | 40.79851 | -111.96207 | 4226 ft | 10 kts | 202° |
| 2026-04-20 23:40 | 40.79831 | -111.96210 | 4227 ft | 0 kts | 181° |
| 2026-04-20 23:40 | 40.79829 | -111.96210 | 4227 ft | 1 kts | 181° |
| 2026-04-20 23:41 | 40.79828 | -111.96210 | 4227 ft | 0 kts | 181° |
| 2026-04-20 23:41 | 40.79528 | -111.96210 | 4225 ft | 101 kts | 180° |
| 2026-04-20 23:41 | 40.78535 | -111.96212 | 4229 ft | 174 kts | 180° |
| 2026-04-20 23:41 | 40.77317 | -111.96209 | 4960 ft | 131 kts | 184° |
| 2026-04-20 23:42 | 40.76432 | -111.96224 | 5899 ft | 131 kts | 186° |
| 2026-04-20 23:42 | 40.75496 | -111.96288 | 5850 ft | 140 kts | 185° |
| 2026-04-20 23:42 | 40.74518 | -111.96402 | 5903 ft | 142 kts | 188° |
| 2026-04-20 23:42 | 40.73527 | -111.96038 | 5739 ft | 163 kts | 152° |
| 2026-04-20 23:43 | 40.72640 | -111.95068 | 5797 ft | 177 kts | 152° |
| 2026-04-20 23:43 | 40.71392 | -111.94498 | 5795 ft | 193 kts | 175° |
| 2026-04-20 23:43 | 40.70128 | -111.94228 | 6080 ft | 179 kts | 170° |
| 2026-04-20 23:43 | 40.68794 | -111.93848 | 6258 ft | 219 kts | 170° |
| 2026-04-20 23:44 | 40.67203 | -111.93596 | 6555 ft | 236 kts | 192° |
| 2026-04-20 23:44 | 40.66202 | -111.95317 | 6425 ft | 246 kts | 246° |
| 2026-04-20 23:44 | 40.65772 | -111.97187 | 5814 ft | 180 kts | 252° |
| 2026-04-20 23:44 | 40.65370 | -111.98517 | 5357 ft | 135 kts | 232° |
| 2026-04-20 23:45 | 40.64663 | -111.99153 | 5147 ft | 121 kts | 203° |
| 2026-04-20 23:45 | 40.63849 | -111.99463 | 4895 ft | 121 kts | 193° |
| 2026-04-20 23:45 | 40.63030 | -111.99466 | 4698 ft | 116 kts | 177° |
| 2026-04-20 23:45 | 40.62260 | -111.99338 | 4596 ft | 102 kts | 175° |
| 2026-04-20 23:46 | 40.61599 | -111.99229 | 4593 ft | 121 kts | 173° |
| 2026-04-20 23:46 | 40.60657 | -111.99070 | 4858 ft | 152 kts | 176° |
| 2026-04-20 23:46 | 40.59526 | -111.98760 | 5148 ft | 179 kts | 166° |
| 2026-04-20 23:46 | 40.58200 | -111.98123 | 5271 ft | 221 kts | 166° |
| 2026-04-20 23:47 | 40.56625 | -111.97342 | 5343 ft | 260 kts | 162° |
| 2026-04-20 23:47 | 40.54817 | -111.96466 | 5544 ft | 296 kts | 162° |
| 2026-04-20 23:47 | 40.52871 | -111.95557 | 5601 ft | 293 kts | 164° |
| 2026-04-20 23:47 | 40.50977 | -111.94741 | 5711 ft | 295 kts | 161° |
| 2026-04-20 23:48 | 40.49103 | -111.93710 | 5501 ft | 293 kts | 159° |
| 2026-04-20 23:48 | 40.47254 | -111.92641 | 5372 ft | 286 kts | 158° |
| 2026-04-20 23:48 | 40.45436 | -111.91459 | 5117 ft | 284 kts | 151° |
| 2026-04-20 23:48 | 40.43695 | -111.90148 | 5024 ft | 296 kts | 155° |
| 2026-04-20 23:49 | 40.41951 | -111.89142 | 5635 ft | 267 kts | 153° |
| 2026-04-20 23:49 | 40.40463 | -111.87487 | 5830 ft | 299 kts | 130° |
| 2026-04-20 23:49 | 40.39198 | -111.85280 | 5728 ft | 294 kts | 127° |
| 2026-04-20 23:49 | 40.38034 | -111.83028 | 5626 ft | 303 kts | 122° |
| 2026-04-20 23:50 | 40.36828 | -111.80889 | 5698 ft | 280 kts | 139° |
| 2026-04-20 23:50 | 40.35244 | -111.79794 | 5932 ft | 236 kts | 162° |
| 2026-04-20 23:50 | 40.33768 | -111.79089 | 5853 ft | 209 kts | 164° |
| 2026-04-20 23:50 | 40.32413 | -111.78364 | 5675 ft | 212 kts | 162° |
| 2026-04-20 23:51 | 40.31073 | -111.77708 | 5594 ft | 205 kts | 162° |
| 2026-04-20 23:51 | 40.29713 | -111.77180 | 5310 ft | 201 kts | 175° |
| 2026-04-20 23:51 | 40.28356 | -111.77236 | 5304 ft | 188 kts | 184° |
| 2026-04-20 23:51 | 40.27177 | -111.76968 | 5348 ft | 154 kts | 156° |
| 2026-04-20 23:52 | 40.26301 | -111.76145 | 5093 ft | 155 kts | 143° |
| 2026-04-20 23:52 | 40.25455 | -111.75394 | 5019 ft | 139 kts | 148° |
| 2026-04-20 23:52 | 40.24685 | -111.74721 | 4901 ft | 131 kts | 147° |
| 2026-04-20 23:52 | 40.23923 | -111.74044 | 4780 ft | 134 kts | 145° |
| 2026-04-20 23:53 | 40.23136 | -111.73344 | 4571 ft | 140 kts | 143° |
| 2026-04-20 23:53 | 40.22383 | -111.72671 | 4500 ft | 114 kts | 149° |
| 2026-04-20 23:53 | 40.21987 | -111.72330 | 4497 ft | 39 kts | 146° |
| 2026-04-20 23:53 | 40.21901 | -111.72189 | 4499 ft | 11 kts | 78° |
| 2026-04-20 23:54 | 40.21918 | -111.72074 | 4500 ft | 16 kts | 79° |
| 2026-04-20 23:54 | 40.21932 | -111.71959 | 4499 ft | 9 kts | 34° |
| 2026-04-20 23:54 | 40.21942 | -111.71954 | 4498 ft | 0 kts | 17° |